Opal, WY (83124)

12:33 PM MDT on August 20, 2014 (GMT -0600)
Kemmerer | Change Station
CLOSE
Current Station
Personal Weather Station
Location: Kemmerer, WY
Elevation: 6985 ft
Nearby Weather Stations
Active Advisory: Special Statement Active Notice: Public Information Statement

Elev 6985 ft 41.80 °N, 110.54 °W | Updated 0 second ago

Scattered Clouds
Scattered Clouds
71.6 °F
Feels Like 77 °F
N
4.0
Wind Variable Wind from WSW
Gusts 17.0 mph

Today
High -- | Low -- °F
--% Chance of Precip.
Yesterday
High -- | Low -- °F
Precip. -- in
6:34 AM 8:13 PM
Waning Crescent, 20% visible
Pressure 30.13 in
Visibility 10.0 miles
Clouds Scattered Clouds 3600 ft
Scattered Clouds 4200 ft
Scattered Clouds 4900 ft
Heat Index 77 °F
Dew Point 42 °F
Humidity 35%
Rainfall 0.00 in
Snow Depth Not available.
UV 8 out of 12
Pollen 9.00 out of 12
Air Quality Not available.
Flu Activity Not available.
METAR KEMM 201815Z AUTO 25011G14KT 220V300 10SM SCT036 SCT042 SCT049 17/07 A3013 RMK AO2

More Conditions Fewer Conditions

Pressure 30.13 in
Visibility 10.0 miles
Clouds Scattered Clouds 3600 ft
Scattered Clouds 4200 ft
Scattered Clouds 4900 ft
Heat Index 77 °F
Dew Point 42 °F
Humidity 35%
Rainfall 0.00 in
Snow Depth Not available.
UV 8 out of 12
Pollen 9.00 out of 12
Air Quality Not available.
Flu Activity Not available.
METAR KEMM 201815Z AUTO 25011G14KT 220V300 10SM SCT036 SCT042 SCT049 17/07 A3013 RMK AO2

More Conditions Fewer Conditions

10-Day Weather Forecast

Almanac

Astronomy

Aug. 20, 2014 Rise Set
Actual Time 6:34 AM MDT 8:13 PM MDT
Civil Twilight 6:05 AM MDT 8:43 PM MDT
Nautical Twilight 5:29 AM MDT 9:18 PM MDT
Astronomical Twilight 4:51 AM MDT 9:56 PM MDT
Moon 2:15 AM MDT 5:02 PM MDT
Length of Visible Light 14h 37m
Length of Day
13h 38m
Tomorrow will be 2m 34s shorter.
Waning Crescent, 20% of the Moon is Illuminated
Today
Waning Crescent
Aug 25
New
Sep 2
First Quarter
Sep 8
Full
Sep 15
Last Quarter

Today's Extremes

State Highs State Lows

Community

WunderPhotos

Upload Photos

1,745,707 photos uploaded!

WunderBlogs® & News

By Dr. Jeff Masters
Director of Meteorology, Weather Underground
By Kari Strenfel
Meteorologist, Weather Underground
By Christopher C. Burt
Weather Historian, Weather Underground
August 20, 2014
August 20, 2014
August 20, 2014

Nearby

Snow Depth

Station Depth Elevation
Hams Fork 0 in 7840 ft
Kelley R.S. 0 in 8180 ft
Willow Creek 1 in 8450 ft
Big Sandy Opening 0 in 9080 ft
New Fork Lake 1 in 8340 ft

Earthquake Activity

City Distance Mag. Time & Date
No recent earthquake activity has been reported nearby.
Minimum magnitude displayed is 2.5.

Coastal Water Temperatures

Place Temperature
No Stations Reporting

Nearby Weather Stations